createdAt,value
2023-12-14T00:02:28.674Z,101928.44
2023-12-14T00:04:55.333Z,101939.44
2023-12-14T00:07:21.978Z,101946.88
2023-12-14T00:09:48.762Z,101947.19
2023-12-14T00:12:15.444Z,101956.25
2023-12-14T00:14:42.182Z,101959.41
2023-12-14T00:17:08.890Z,101964.84
2023-12-14T00:19:35.578Z,101971.56
2023-12-14T00:22:02.515Z,101971.16
2023-12-14T00:24:29.172Z,101974.28
2023-12-14T00:26:55.793Z,101973.06
2023-12-14T00:29:25.195Z,101974.22
2023-12-14T00:31:54.490Z,101976.94
2023-12-14T00:34:21.121Z,101974.13
2023-12-14T00:36:47.947Z,101984.75
2023-12-14T00:39:14.650Z,102000.91
2023-12-14T00:41:43.452Z,101998.09
2023-12-14T00:44:10.197Z,102005.97
2023-12-14T00:46:37.061Z,102007.13
2023-12-14T00:49:03.737Z,102017.75
2023-12-14T00:51:32.622Z,102025.59
2023-12-14T00:54:01.628Z,102016.91
2023-12-14T00:56:30.585Z,102019.66
2023-12-14T00:58:59.647Z,102022.00
2023-12-14T01:01:26.331Z,102027.09
2023-12-14T01:03:55.371Z,102032.19
2023-12-14T01:06:22.047Z,102044.75
2023-12-14T01:08:51.169Z,102049.84
2023-12-14T01:11:20.300Z,102047.47
2023-12-14T01:13:46.962Z,102037.94
2023-12-14T01:16:15.985Z,102046.63
2023-12-14T01:18:42.648Z,102037.09
2023-12-14T01:21:09.305Z,102041.41
2023-12-14T01:23:35.973Z,102047.66
2023-12-14T01:26:02.704Z,102040.94
2023-12-14T01:28:29.345Z,102039.69
2023-12-14T01:30:58.296Z,102049.13
2023-12-14T01:33:25.287Z,102056.97
2023-12-14T01:35:54.135Z,102056.56
2023-12-14T01:38:22.996Z,102058.09
2023-12-14T01:40:49.621Z,102066.75
2023-12-14T01:43:18.718Z,102073.81
2023-12-14T01:45:48.332Z,102076.13
2023-12-14T01:48:15.078Z,102080.06
2023-12-14T01:50:44.153Z,102075.28
2023-12-14T01:53:13.166Z,102080.38
2023-12-14T01:55:40.089Z,102076.38
2023-12-14T01:58:06.799Z,102076.75
2023-12-14T02:00:47.152Z,102070.00
2023-12-14T02:03:13.886Z,102081.75
2023-12-14T02:05:40.537Z,102079.34
2023-12-14T02:08:07.227Z,102085.25
2023-12-14T02:10:33.958Z,102087.56
2023-12-14T02:13:05.860Z,102102.88
2023-12-14T02:15:34.812Z,102117.41
2023-12-14T02:18:01.530Z,102110.28
2023-12-14T02:20:28.257Z,102117.75
2023-12-14T02:22:54.896Z,102125.59
2023-12-14T02:25:25.098Z,102130.69
2023-12-14T02:27:52.787Z,102137.75
2023-12-14T02:30:21.798Z,102141.66
2023-12-14T02:32:48.576Z,102150.28
2023-12-14T02:35:15.290Z,102148.25
2023-12-14T02:37:42.017Z,102152.56
2023-12-14T02:40:09.557Z,102144.63
2023-12-14T02:42:36.716Z,102146.94
2023-12-14T02:45:04.606Z,102140.22
2023-12-14T02:47:31.306Z,102135.03
2023-12-14T02:49:58.068Z,102127.50
2023-12-14T02:52:24.931Z,102114.88
2023-12-14T02:54:51.546Z,102116.38
2023-12-14T02:57:18.323Z,102115.94
2023-12-14T02:59:44.985Z,102120.22
2023-12-14T03:02:11.776Z,102131.16
2023-12-14T03:04:44.170Z,102134.25
2023-12-14T03:07:10.854Z,102122.03
2023-12-14T03:09:45.330Z,102125.13
2023-12-14T03:12:12.341Z,102119.97
2023-12-14T03:14:43.732Z,102121.50
2023-12-14T03:17:13.872Z,102143.91
2023-12-14T03:19:42.310Z,102150.94
2023-12-14T03:22:16.797Z,102154.06
2023-12-14T03:24:43.746Z,102141.78
2023-12-14T03:27:10.337Z,102151.59
2023-12-14T03:29:36.934Z,102156.66
2023-12-14T03:32:03.777Z,102154.25
2023-12-14T03:34:32.655Z,102150.28
2023-12-14T03:37:01.589Z,102160.03
2023-12-14T03:39:28.636Z,102153.72
2023-12-14T03:41:58.257Z,102157.22
2023-12-14T03:44:25.261Z,102158.00
2023-12-14T03:46:52.263Z,102170.56
2023-12-14T03:49:18.970Z,102170.13
2023-12-14T03:51:45.568Z,102181.47
2023-12-14T03:54:12.304Z,102191.72
2023-12-14T03:56:38.927Z,102198.72
2023-12-14T03:59:05.589Z,102194.72
2023-12-14T04:01:34.740Z,102194.28
2023-12-14T04:04:01.405Z,102206.09
2023-12-14T04:06:30.484Z,102202.91
2023-12-14T04:08:57.188Z,102204.41
2023-12-14T04:11:23.807Z,102211.09
2023-12-14T04:13:51.896Z,102212.22
2023-12-14T04:16:22.793Z,102214.53
2023-12-14T04:18:53.457Z,102213.75
2023-12-14T04:21:20.181Z,102217.66
2023-12-14T04:23:46.986Z,102224.34
2023-12-14T04:26:15.421Z,102221.91
2023-12-14T04:28:45.797Z,102216.78
2023-12-14T04:31:12.530Z,102226.97
2023-12-14T04:33:39.210Z,102228.16
2023-12-14T04:36:06.055Z,102234.03
2023-12-14T04:38:32.627Z,102232.41
2023-12-14T04:40:59.298Z,102237.47
2023-12-14T04:43:25.968Z,102236.66
2023-12-14T04:45:52.569Z,102236.66
2023-12-14T04:48:19.283Z,102244.47
2023-12-14T04:50:45.987Z,102246.78
2023-12-14T04:53:12.650Z,102251.50
2023-12-14T04:55:39.316Z,102249.09
2023-12-14T04:58:06.009Z,102252.22
2023-12-14T05:00:32.697Z,102267.16
2023-12-14T05:02:59.323Z,102268.28
2023-12-14T05:05:26.119Z,102268.28
2023-12-14T05:07:52.775Z,102265.88
2023-12-14T05:10:19.395Z,102269.78
2023-12-14T05:12:45.994Z,102269.78
2023-12-14T05:15:14.838Z,102273.69
2023-12-14T05:17:41.698Z,102280.69
2023-12-14T05:20:11.824Z,102287.03
2023-12-14T05:22:38.736Z,102288.16
2023-12-14T05:25:05.829Z,102286.56
2023-12-14T05:27:32.550Z,102288.53
2023-12-14T05:29:59.196Z,102295.19
2023-12-14T05:32:28.248Z,102297.94
2023-12-14T05:34:54.916Z,102304.59
2023-12-14T05:37:21.547Z,102308.97
2023-12-14T05:39:48.243Z,102297.66
2023-12-14T05:42:18.296Z,102298.78
2023-12-14T05:44:46.238Z,102302.91
2023-12-14T05:47:12.935Z,102312.66
2023-12-14T05:49:43.930Z,102313.94
2023-12-14T05:52:11.282Z,102314.19
2023-12-14T05:54:40.982Z,102307.19
2023-12-14T05:57:10.060Z,102309.59
2023-12-14T05:59:36.757Z,102313.97
2023-12-14T06:02:03.731Z,102318.69
2023-12-14T06:04:30.754Z,102316.16
2023-12-14T06:06:57.757Z,102319.03
2023-12-14T06:09:30.400Z,102315.47
2023-12-14T06:11:57.023Z,102311.78
2023-12-14T06:14:23.800Z,102300.09
2023-12-14T06:16:50.424Z,102298.66
2023-12-14T06:19:17.178Z,102307.47
2023-12-14T06:21:46.186Z,102302.47
2023-12-14T06:24:12.861Z,102316.03
2023-12-14T06:26:45.416Z,102310.97
2023-12-14T06:29:12.961Z,102304.25
2023-12-14T06:31:40.205Z,102313.34
2023-12-14T06:34:09.812Z,102314.09
2023-12-14T06:36:36.619Z,102314.00
2023-12-14T06:39:06.086Z,102308.75
2023-12-14T06:41:36.076Z,102299.13
2023-12-14T06:44:02.753Z,102308.50
2023-12-14T06:46:31.615Z,102315.56
2023-12-14T06:48:58.411Z,102325.75
2023-12-14T06:51:25.555Z,102324.41
2023-12-14T06:53:54.543Z,102327.06
2023-12-14T06:56:21.197Z,102333.66
2023-12-14T06:58:50.858Z,102331.09
2023-12-14T07:01:21.224Z,102346.00
2023-12-14T07:03:49.205Z,102339.91
2023-12-14T07:06:19.273Z,102329.88
2023-12-14T07:08:46.719Z,102341.97
2023-12-14T07:11:13.618Z,102339.44
2023-12-14T07:13:43.279Z,102350.41
2023-12-14T07:16:13.016Z,102352.56
2023-12-14T07:18:41.322Z,102362.31
2023-12-14T07:21:09.096Z,102375.22
2023-12-14T07:23:38.629Z,102366.03
2023-12-14T07:26:07.138Z,102356.38
2023-12-14T07:28:35.004Z,102362.59
2023-12-14T07:31:01.737Z,102360.88
2023-12-14T07:33:28.511Z,102364.50
2023-12-14T07:35:55.608Z,102365.34
2023-12-14T07:38:22.387Z,102375.41
2023-12-14T07:40:51.295Z,102364.94
2023-12-14T07:43:18.224Z,102367.56
2023-12-14T07:45:45.511Z,102370.16
2023-12-14T07:48:12.287Z,102367.25
2023-12-14T07:50:39.433Z,102376.63
2023-12-14T07:53:06.233Z,102370.16
2023-12-14T07:55:32.966Z,102367.69
2023-12-14T07:57:59.588Z,102381.50
2023-12-14T08:00:26.685Z,102377.28
2023-12-14T08:02:53.300Z,102381.38
2023-12-14T08:05:22.754Z,102383.38
2023-12-14T08:07:53.685Z,102373.28
2023-12-14T08:10:20.749Z,102373.97
2023-12-14T08:12:49.617Z,102377.03
2023-12-14T08:15:16.396Z,102377.47
2023-12-14T08:17:43.569Z,102382.19
2023-12-14T08:20:12.869Z,102391.56
2023-12-14T08:22:48.179Z,102384.72
2023-12-14T08:25:15.889Z,102399.53
2023-12-14T08:27:43.502Z,102396.19
2023-12-14T08:30:13.862Z,102409.03
2023-12-14T08:32:41.109Z,102400.59
2023-12-14T08:35:08.463Z,102404.31
2023-12-14T08:37:37.076Z,102408.50
2023-12-14T08:40:06.885Z,102409.00
2023-12-14T08:42:33.678Z,102405.06
2023-12-14T08:45:00.480Z,102423.25
2023-12-14T08:47:27.292Z,102424.38
2023-12-14T08:49:54.463Z,102418.09
2023-12-14T08:52:21.193Z,102414.06
2023-12-14T08:54:48.124Z,102424.31
2023-12-14T08:57:14.826Z,102424.81
2023-12-14T08:59:44.793Z,102419.59
2023-12-14T09:02:11.935Z,102426.47
2023-12-14T09:04:39.304Z,102423.53
2023-12-14T09:07:05.933Z,102423.84
2023-12-14T09:09:35.120Z,102417.06
2023-12-14T09:12:01.803Z,102414.59
2023-12-14T09:14:30.961Z,102415.16
2023-12-14T09:17:02.383Z,102419.28
2023-12-14T09:19:31.153Z,102416.09
2023-12-14T09:22:02.777Z,102416.00
2023-12-14T09:24:30.142Z,102420.19
2023-12-14T09:26:56.873Z,102425.91
2023-12-14T09:29:25.925Z,102429.56
2023-12-14T09:31:52.850Z,102426.41
2023-12-14T09:34:19.747Z,102428.47
2023-12-14T09:36:46.492Z,102429.69
2023-12-14T09:39:13.115Z,102433.69
2023-12-14T09:41:40.514Z,102431.72
2023-12-14T09:44:08.227Z,102435.72
2023-12-14T09:46:38.455Z,102424.94
2023-12-14T09:49:08.608Z,102440.88
2023-12-14T09:51:36.149Z,102436.06
2023-12-14T09:54:02.780Z,102435.25
2023-12-14T09:56:29.500Z,102442.00
2023-12-14T09:58:56.241Z,102445.19
2023-12-14T10:01:28.224Z,102443.97
2023-12-14T10:04:11.162Z,102443.94
2023-12-14T10:06:41.424Z,102446.28
2023-12-14T10:09:14.648Z,102446.22
2023-12-14T10:11:41.981Z,102448.16
2023-12-14T10:14:29.008Z,102452.50
2023-12-14T10:17:02.693Z,102459.63
2023-12-14T10:19:30.489Z,102460.78
2023-12-14T10:21:59.643Z,102469.06
2023-12-14T10:24:26.662Z,102462.66
2023-12-14T10:26:53.485Z,102456.66
2023-12-14T10:29:20.322Z,102454.63
2023-12-14T10:31:49.539Z,102452.59
2023-12-14T10:34:16.474Z,102455.31
2023-12-14T10:36:46.669Z,102452.50
2023-12-14T10:39:16.883Z,102458.41
2023-12-14T10:41:54.793Z,102462.31
2023-12-14T10:44:47.654Z,102460.72
2023-12-14T10:47:16.891Z,102456.22
2023-12-14T10:49:53.462Z,102452.19
2023-12-14T10:52:24.198Z,102447.75
2023-12-14T10:54:59.583Z,102454.50
2023-12-14T10:57:26.373Z,102450.06
2023-12-14T11:00:00.940Z,102448.03
2023-12-14T11:02:27.725Z,102458.69
2023-12-14T11:05:10.767Z,102453.09
2023-12-14T11:07:58.921Z,102445.78
2023-12-14T11:10:37.331Z,102454.94
2023-12-14T11:13:06.992Z,102450.47
2023-12-14T11:15:37.150Z,102449.25
2023-12-14T11:18:10.099Z,102437.56
2023-12-14T11:20:46.440Z,102447.53
2023-12-14T11:23:33.076Z,102441.44
2023-12-14T11:26:04.680Z,102440.25
2023-12-14T11:28:33.164Z,102438.94
2023-12-14T11:31:00.123Z,102433.28
2023-12-14T11:33:42.479Z,102427.25
2023-12-14T11:36:13.365Z,102427.97
2023-12-14T11:38:40.389Z,102431.53
2023-12-14T11:41:07.061Z,102425.06
2023-12-14T11:43:43.724Z,102431.00
2023-12-14T11:46:15.142Z,102429.41
2023-12-14T11:48:42.297Z,102428.13
2023-12-14T11:51:12.540Z,102422.13
2023-12-14T11:53:43.592Z,102420.47
2023-12-14T11:56:10.630Z,102420.44
2023-12-14T11:58:38.031Z,102427.72
2023-12-14T12:01:19.694Z,102429.97
2023-12-14T12:03:51.438Z,102424.19
2023-12-14T12:06:31.958Z,102423.63
2023-12-14T12:08:58.848Z,102425.44
2023-12-14T12:11:31.569Z,102426.84
2023-12-14T12:14:01.194Z,102416.22
2023-12-14T12:16:27.886Z,102412.00
2023-12-14T12:18:56.883Z,102406.56
2023-12-14T12:21:26.410Z,102410.28
2023-12-14T12:23:53.233Z,102402.81
2023-12-14T12:26:22.036Z,102390.94
2023-12-14T12:28:50.997Z,102395.44
2023-12-14T12:31:17.854Z,102395.94
2023-12-14T12:33:44.598Z,102390.44
2023-12-14T12:36:11.840Z,102389.72
2023-12-14T12:38:41.742Z,102390.97
2023-12-14T12:41:08.706Z,102385.00
2023-12-14T12:43:35.424Z,102382.66
2023-12-14T12:46:02.065Z,102379.88
2023-12-14T12:48:28.993Z,102382.72
2023-12-14T12:50:55.973Z,102369.97
2023-12-14T12:53:22.972Z,102374.78
2023-12-14T12:55:49.688Z,102377.19
2023-12-14T12:58:16.537Z,102377.22
2023-12-14T13:00:43.197Z,102383.19
2023-12-14T13:03:14.056Z,102385.13
2023-12-14T13:05:40.859Z,102387.44
2023-12-14T13:08:07.926Z,102383.47
2023-12-14T13:10:34.719Z,102387.44
2023-12-14T13:13:06.145Z,102380.28
2023-12-14T13:15:36.423Z,102380.28
2023-12-14T13:18:04.003Z,102379.88
2023-12-14T13:20:30.984Z,102376.28
2023-12-14T13:23:00.067Z,102379.06
2023-12-14T13:25:27.683Z,102397.34
2023-12-14T13:27:56.806Z,102396.13
2023-12-14T13:30:24.406Z,102393.34
2023-12-14T13:32:55.145Z,102395.31
2023-12-14T13:35:23.524Z,102397.66
2023-12-14T13:37:50.678Z,102402.41
2023-12-14T13:40:19.883Z,102407.16
2023-12-14T13:42:54.903Z,102406.72
2023-12-14T13:45:31.669Z,102413.88
2023-12-14T13:47:59.765Z,102409.47
2023-12-14T13:50:29.004Z,102409.47
2023-12-14T13:52:56.262Z,102413.00
2023-12-14T13:55:23.252Z,102411.81
2023-12-14T13:57:49.957Z,102423.31
2023-12-14T14:00:17.606Z,102422.91
2023-12-14T14:02:46.835Z,102426.06
2023-12-14T14:05:13.667Z,102436.78
2023-12-14T14:07:40.428Z,102439.91
2023-12-14T14:10:07.947Z,102439.06
2023-12-14T14:12:37.401Z,102444.59
2023-12-14T14:15:07.074Z,102451.72
2023-12-14T14:17:34.016Z,102448.94
2023-12-14T14:20:00.890Z,102458.06
2023-12-14T14:22:27.660Z,102465.16
2023-12-14T14:24:54.272Z,102471.13
2023-12-14T14:27:23.951Z,102473.47
2023-12-14T14:29:56.809Z,102477.00
2023-12-14T14:32:23.845Z,102486.13
2023-12-14T14:34:50.837Z,102491.69
2023-12-14T14:37:17.680Z,102498.00
2023-12-14T14:39:44.453Z,102496.81
2023-12-14T14:42:11.282Z,102498.88
2023-12-14T14:45:00.032Z,102504.50
2023-12-14T14:47:27.666Z,102513.09
2023-12-14T14:49:57.962Z,102506.13
2023-12-14T14:52:26.885Z,102505.91
2023-12-14T14:54:55.890Z,102510.81
2023-12-14T14:57:22.550Z,102513.25
2023-12-14T14:59:51.393Z,102513.66
2023-12-14T15:02:18.173Z,102512.50
2023-12-14T15:04:45.019Z,102512.88
2023-12-14T15:07:11.655Z,102510.91
2023-12-14T15:09:40.851Z,102522.47
2023-12-14T15:12:07.777Z,102519.69
2023-12-14T15:14:34.516Z,102522.88
2023-12-14T15:17:03.433Z,102534.03
2023-12-14T15:19:30.093Z,102532.44
2023-12-14T15:21:56.812Z,102542.41
2023-12-14T15:24:23.639Z,102542.38
2023-12-14T15:26:52.565Z,102552.34
2023-12-14T15:29:22.544Z,102551.56
2023-12-14T15:31:50.493Z,102550.38
2023-12-14T15:34:19.610Z,102558.34
2023-12-14T15:36:51.083Z,102560.31
2023-12-14T15:39:18.530Z,102557.03
2023-12-14T15:41:45.162Z,102557.66
2023-12-14T15:44:16.590Z,102563.09
2023-12-14T15:46:43.306Z,102567.13
2023-12-14T15:49:12.445Z,102573.13
2023-12-14T15:51:42.126Z,102575.50
2023-12-14T15:54:08.772Z,102575.91
2023-12-14T15:56:37.860Z,102579.13
2023-12-14T15:59:05.253Z,102573.94
2023-12-14T16:01:32.025Z,102579.94
2023-12-14T16:03:58.698Z,102579.47
2023-12-14T16:06:27.800Z,102588.59
2023-12-14T16:08:54.418Z,102598.88
2023-12-14T16:11:21.147Z,102604.84
2023-12-14T16:13:49.642Z,102614.84
2023-12-14T16:16:16.494Z,102608.50
2023-12-14T16:18:43.079Z,102617.75
2023-12-14T16:21:10.647Z,102634.19
2023-12-14T16:23:38.769Z,102631.03
2023-12-14T16:26:08.910Z,102632.66
2023-12-14T16:28:35.633Z,102635.88
2023-12-14T16:31:06.446Z,102636.72
2023-12-14T16:33:34.118Z,102637.94
2023-12-14T16:36:00.994Z,102641.94
2023-12-14T16:38:27.641Z,102643.97
2023-12-14T16:40:56.673Z,102649.56
2023-12-14T16:43:23.695Z,102649.16
2023-12-14T16:45:55.065Z,102650.78
2023-12-14T16:48:24.830Z,102651.56
2023-12-14T16:50:54.671Z,102656.00
2023-12-14T16:53:22.501Z,102667.06
2023-12-14T16:55:51.779Z,102675.34
2023-12-14T16:58:20.753Z,102671.25
2023-12-14T17:00:49.961Z,102688.22
2023-12-14T17:03:16.686Z,102698.06
2023-12-14T17:05:45.621Z,102708.66
2023-12-14T17:08:12.347Z,102708.97
2023-12-14T17:10:41.209Z,102711.25
2023-12-14T17:13:07.866Z,102729.38
2023-12-14T17:15:34.501Z,102724.09
2023-12-14T17:18:01.274Z,102720.84
2023-12-14T17:20:30.622Z,102721.53
2023-12-14T17:22:57.443Z,102713.88
2023-12-14T17:25:24.163Z,102717.69
2023-12-14T17:27:50.935Z,102709.22
2023-12-14T17:30:17.721Z,102710.50
2023-12-14T17:32:44.468Z,102723.25
2023-12-14T17:35:11.369Z,102733.56
2023-12-14T17:37:40.350Z,102733.97
2023-12-14T17:40:07.694Z,102746.63
2023-12-14T17:42:36.720Z,102752.94
2023-12-14T17:45:04.388Z,102749.34
2023-12-14T17:47:31.197Z,102768.06
2023-12-14T17:49:58.095Z,102767.31
2023-12-14T17:52:27.033Z,102770.44
2023-12-14T17:54:55.933Z,102774.78
2023-12-14T17:57:22.647Z,102779.91
2023-12-14T17:59:49.406Z,102788.22
2023-12-14T18:02:16.087Z,102781.44
2023-12-14T18:04:44.952Z,102795.28
2023-12-14T18:07:11.742Z,102800.41
2023-12-14T18:09:38.548Z,102800.34
2023-12-14T18:12:05.605Z,102797.13
2023-12-14T18:14:32.276Z,102811.84
2023-12-14T18:16:58.992Z,102810.81
2023-12-14T18:19:29.777Z,102819.25
2023-12-14T18:21:59.082Z,102802.88
2023-12-14T18:24:30.509Z,102807.66
2023-12-14T18:26:57.164Z,102798.53
2023-12-14T18:29:26.314Z,102798.13
2023-12-14T18:31:56.012Z,102803.28
2023-12-14T18:34:25.408Z,102796.13
2023-12-14T18:36:52.191Z,102796.47
2023-12-14T18:39:21.096Z,102802.44
2023-12-14T18:41:51.626Z,102805.19
2023-12-14T18:44:21.397Z,102818.28
2023-12-14T18:46:50.299Z,102817.09
2023-12-14T18:49:19.319Z,102821.81
2023-12-14T18:51:48.155Z,102843.25
2023-12-14T18:54:15.157Z,102842.44
2023-12-14T18:56:41.895Z,102851.53
2023-12-14T18:59:10.972Z,102856.66
2023-12-14T19:01:37.681Z,102862.22
2023-12-14T19:04:04.630Z,102863.34
2023-12-14T19:06:31.241Z,102863.34
2023-12-14T19:08:58.178Z,102861.38
2023-12-14T19:11:25.330Z,102861.31
2023-12-14T19:13:54.505Z,102867.97
2023-12-14T19:16:26.668Z,102873.06
2023-12-14T19:18:55.326Z,102880.09
2023-12-14T19:21:25.027Z,102880.41
2023-12-14T19:23:52.786Z,102881.16
2023-12-14T19:26:20.894Z,102887.81
2023-12-14T19:28:53.681Z,102896.09
2023-12-14T19:31:23.839Z,102901.22
2023-12-14T19:33:53.041Z,102911.88
2023-12-14T19:36:20.250Z,102911.47
2023-12-14T19:38:52.681Z,102911.81
2023-12-14T19:41:19.405Z,102913.38
2023-12-14T19:43:46.176Z,102911.31
2023-12-14T19:46:16.538Z,102911.69
2023-12-14T19:48:46.423Z,102914.84
2023-12-14T19:51:15.412Z,102926.28
2023-12-14T19:53:42.091Z,102923.09
2023-12-14T19:56:11.012Z,102926.25
2023-12-14T19:58:37.769Z,102927.44
2023-12-14T20:01:07.167Z,102930.09
2023-12-14T20:03:36.579Z,102927.28
2023-12-14T20:06:05.251Z,102926.47
2023-12-14T20:08:32.204Z,102929.63
2023-12-14T20:10:58.958Z,102929.19
2023-12-14T20:13:28.708Z,102937.88
2023-12-14T20:15:57.784Z,102939.03
2023-12-14T20:18:24.523Z,102937.81
2023-12-14T20:20:52.243Z,102943.72
2023-12-14T20:23:18.988Z,102959.59
2023-12-14T20:25:45.766Z,102957.16
2023-12-14T20:28:12.421Z,102961.09
2023-12-14T20:30:39.213Z,102963.06
2023-12-14T20:33:06.186Z,102978.91
2023-12-14T20:35:37.379Z,102968.56
2023-12-14T20:38:08.490Z,102975.25
2023-12-14T20:40:37.730Z,102987.53
2023-12-14T20:43:04.496Z,102991.47
2023-12-14T20:45:31.489Z,102993.00
2023-12-14T20:47:58.236Z,103003.31
2023-12-14T20:50:25.009Z,103010.38
2023-12-14T20:52:51.649Z,103018.69
2023-12-14T20:55:18.441Z,103019.06
2023-12-14T20:57:45.123Z,103026.94
2023-12-14T21:00:12.078Z,103035.25
2023-12-14T21:02:39.509Z,103040.38
2023-12-14T21:05:07.555Z,103046.28
2023-12-14T21:07:37.016Z,103041.88
2023-12-14T21:10:04.368Z,103051.34
2023-12-14T21:12:31.612Z,103052.50
2023-12-14T21:14:58.294Z,103059.25
2023-12-14T21:17:27.390Z,103058.00
2023-12-14T21:19:54.657Z,103061.56
2023-12-14T21:22:21.526Z,103064.72
2023-12-14T21:24:50.374Z,103055.94
2023-12-14T21:27:35.935Z,103048.78
2023-12-14T21:30:02.833Z,103056.66
2023-12-14T21:32:29.601Z,103065.34
2023-12-14T21:34:56.343Z,103068.50
2023-12-14T21:37:25.256Z,103074.03
2023-12-14T21:39:52.017Z,103079.13
2023-12-14T21:42:20.837Z,103074.75
2023-12-14T21:44:49.911Z,103081.47
2023-12-14T21:47:16.773Z,103094.50
2023-12-14T21:49:43.465Z,103103.19
2023-12-14T21:52:17.385Z,103099.97
2023-12-14T21:54:46.363Z,103098.34
2023-12-14T21:57:13.005Z,103103.09
2023-12-14T21:59:39.737Z,103105.41
2023-12-14T22:02:06.663Z,103112.16
2023-12-14T22:04:33.320Z,103098.66
2023-12-14T22:07:01.164Z,103101.41
2023-12-14T22:09:30.328Z,103104.53
2023-12-14T22:11:57.019Z,103108.47
2023-12-14T22:14:23.805Z,103117.16
2023-12-14T22:16:51.714Z,103120.28
2023-12-14T22:19:20.818Z,103120.28
2023-12-14T22:21:47.512Z,103117.06
2023-12-14T22:24:14.166Z,103125.72
2023-12-14T22:26:40.881Z,103125.72
2023-12-14T22:29:07.808Z,103128.06
2023-12-14T22:31:34.609Z,103124.47
2023-12-14T22:34:01.612Z,103126.47
2023-12-14T22:36:28.444Z,103129.56
2023-12-14T22:39:06.442Z,103129.94
2023-12-14T22:41:35.657Z,103131.13
2023-12-14T22:44:02.408Z,103131.13
2023-12-14T22:46:29.108Z,103130.66
2023-12-14T22:48:55.842Z,103138.16
2023-12-14T22:51:22.926Z,103152.38
2023-12-14T22:53:49.671Z,103159.06
2023-12-14T22:56:23.762Z,103156.66
2023-12-14T22:58:51.374Z,103151.50
2023-12-14T23:01:36.998Z,103159.81
2023-12-14T23:04:05.163Z,103166.03
2023-12-14T23:06:35.661Z,103161.69
2023-12-14T23:09:03.296Z,103177.50
2023-12-14T23:11:31.130Z,103181.41
2023-12-14T23:13:58.925Z,103192.50
2023-12-14T23:16:25.930Z,103183.28
2023-12-14T23:18:54.847Z,103185.25
2023-12-14T23:21:21.674Z,103181.69
2023-12-14T23:23:50.381Z,103187.59
2023-12-14T23:26:17.110Z,103187.13
2023-12-14T23:28:43.823Z,103187.81
2023-12-14T23:31:10.591Z,103184.59
2023-12-14T23:33:39.593Z,103196.88
2023-12-14T23:36:06.834Z,103195.59
2023-12-14T23:38:33.535Z,103200.31
2023-12-14T23:41:02.482Z,103201.50
2023-12-14T23:43:29.364Z,103203.47
2023-12-14T23:45:58.413Z,103205.78
2023-12-14T23:48:25.142Z,103201.75
2023-12-14T23:50:51.844Z,103208.09
2023-12-14T23:53:18.530Z,103202.09
2023-12-14T23:55:45.239Z,103214.31
2023-12-14T23:58:11.928Z,103208.00
